Herd Ride Schedule
Ride window is currently Disabled
Upcoming Herd Events
EventRouteTypeUTCLos AngelesNew YorkSydneyNew Zealand
The HERD Sunday Endurance (1.5-2.0 wkg)Big LoopRide Sun 25-Jul@11:55Sun 25-Jul@11:55Sun 25-Jul@04:55Sun 25-Jul@07:55Sun 25-Jul@21:55Sun 25-Jul@23:55
Herd Summer Racing League Downtown DolphinRace Sun 25-Jul@13:30Sun 25-Jul@13:30Sun 25-Jul@06:30Sun 25-Jul@09:30Sun 25-Jul@23:30Mon 26-Jul@01:30
Herd of Mountain Goats 2018 UCI Worlds Course Short LapRace Sun 25-Jul@14:00Sun 25-Jul@14:00Sun 25-Jul@07:00Sun 25-Jul@10:00Mon 26-Jul@00:00Mon 26-Jul@02:00
Herd of Mountain Goats with Stuart Barrington TBDMeetup Sun 25-Jul@14:30Sun 25-Jul@14:30Sun 25-Jul@07:30Sun 25-Jul@10:30Mon 26-Jul@00:30Mon 26-Jul@02:30
The HERD Rode to Recovery (1.2-1.5 wkg)Flatland LoopRide Sun 25-Jul@16:00Sun 25-Jul@16:00Sun 25-Jul@09:00Sun 25-Jul@12:00Mon 26-Jul@02:00Mon 26-Jul@04:00
Herd of Mountain Goats 2018 UCI Worlds Course Short LapRace Sun 25-Jul@17:15Sun 25-Jul@17:15Sun 25-Jul@10:15Sun 25-Jul@13:15Mon 26-Jul@03:15Mon 26-Jul@05:15
The Stampede (ITT) by Herd Racing League Flatland LoopRace Sun 25-Jul@18:00Sun 25-Jul@18:00Sun 25-Jul@11:00Sun 25-Jul@14:00Mon 26-Jul@04:00Mon 26-Jul@06:00
Herd of Mountain Goats 2018 UCI Worlds Course Short LapRace Sun 25-Jul@22:00Sun 25-Jul@22:00Sun 25-Jul@15:00Sun 25-Jul@18:00Mon 26-Jul@08:00Mon 26-Jul@10:00
The Stampede (ITT) by Herd Racing League Flatland LoopRace Mon 26-Jul@08:00Mon 26-Jul@08:00Mon 26-Jul@01:00Mon 26-Jul@04:00Mon 26-Jul@18:00Mon 26-Jul@20:00
The HERD M2C2 (1.0-1.3 wkg)Watopia's WaistbandRide Mon 26-Jul@09:55Mon 26-Jul@09:55Mon 26-Jul@02:55Mon 26-Jul@05:55Mon 26-Jul@19:55Mon 26-Jul@21:55
Regular Irregular’s meetup - Monday (Pam Gretton) TBDMeetup Mon 26-Jul@11:00Mon 26-Jul@11:00Mon 26-Jul@04:00Mon 26-Jul@07:00Mon 26-Jul@21:00Mon 26-Jul@23:00
Herd of Mountain Goats 2018 UCI Worlds Course Short LapRace Mon 26-Jul@17:30Mon 26-Jul@17:30Mon 26-Jul@10:30Mon 26-Jul@13:30Tue 27-Jul@03:30Tue 27-Jul@05:30
The HERD Kickstart (1.6-1.9 wkg)Sand And SequoiasRide Mon 26-Jul@17:55Mon 26-Jul@17:55Mon 26-Jul@10:55Mon 26-Jul@13:55Tue 27-Jul@03:55Tue 27-Jul@05:55
The Stampede (ITT) by Herd Racing League Flatland LoopRace Mon 26-Jul@18:05Mon 26-Jul@18:05Mon 26-Jul@11:05Mon 26-Jul@14:05Tue 27-Jul@04:05Tue 27-Jul@06:05
The Stampede (ITT) by Herd Racing League Flatland LoopRace Mon 26-Jul@21:50Mon 26-Jul@21:50Mon 26-Jul@14:50Mon 26-Jul@17:50Tue 27-Jul@07:50Tue 27-Jul@09:50
The HERD Mellow Monday (1.0-1.3 wkg)Greater London FlatRide Mon 26-Jul@22:15Mon 26-Jul@22:15Mon 26-Jul@15:15Mon 26-Jul@18:15Tue 27-Jul@08:15Tue 27-Jul@10:15
The Stampede (ITT) by Herd Racing League Flatland LoopRace Tue 27-Jul@00:00Tue 27-Jul@00:00Mon 26-Jul@17:00Mon 26-Jul@20:00Tue 27-Jul@10:00Tue 27-Jul@12:00
The HERd SHEries Richmond RollercoasterRace Tue 27-Jul@09:00Tue 27-Jul@09:00Tue 27-Jul@02:00Tue 27-Jul@05:00Tue 27-Jul@19:00Tue 27-Jul@21:00
Regular Irregular’s meetup - Tuesday (Brad Houston) TBDMeetup Tue 27-Jul@11:00Tue 27-Jul@11:00Tue 27-Jul@04:00Tue 27-Jul@07:00Tue 27-Jul@21:00Tue 27-Jul@23:00
The Herd Take it Easy Tuesday ride on RGT (1.5-1.8wkg)TBDGroupRide Tue 27-Jul@11:30Tue 27-Jul@11:30Tue 27-Jul@04:30Tue 27-Jul@07:30Tue 27-Jul@21:30Tue 27-Jul@23:30
The Herd Gallops (2.0-2.5 wkg)Volcano Climb After PartyRide Tue 27-Jul@15:50Tue 27-Jul@15:50Tue 27-Jul@08:50Tue 27-Jul@11:50Wed 28-Jul@01:50Wed 28-Jul@03:50
The HERD Tuesday Social (1.4-1.6 wkg)InnsbruckringRide Tue 27-Jul@16:55Tue 27-Jul@16:55Tue 27-Jul@09:55Tue 27-Jul@12:55Wed 28-Jul@02:55Wed 28-Jul@04:55
The HERd SHEries Richmond RollercoasterRace Tue 27-Jul@18:00Tue 27-Jul@18:00Tue 27-Jul@11:00Tue 27-Jul@14:00Wed 28-Jul@04:00Wed 28-Jul@06:00
The HERd SHEries Richmond RollercoasterRace Tue 27-Jul@23:00Tue 27-Jul@23:00Tue 27-Jul@16:00Tue 27-Jul@19:00Wed 28-Jul@09:00Wed 28-Jul@11:00
The HERD Kick It UP! (1.9-2.1 wkg)The Magnificent 8Ride Tue 27-Jul@23:30Tue 27-Jul@23:30Tue 27-Jul@16:30Tue 27-Jul@19:30Wed 28-Jul@09:30Wed 28-Jul@11:30
The HERD Down Under (1.4-1.6 wkg)Greater London FlatRide Wed 28-Jul@07:30Wed 28-Jul@07:30Wed 28-Jul@00:30Wed 28-Jul@03:30Wed 28-Jul@17:30Wed 28-Jul@19:30
Bullseye Points Race by Herd Racing League The Fan FlatsRace Wed 28-Jul@08:00Wed 28-Jul@08:00Wed 28-Jul@01:00Wed 28-Jul@04:00Wed 28-Jul@18:00Wed 28-Jul@20:00
The HERD Morning Ride (1.0-1.2 wkg)Douce FranceRide Wed 28-Jul@11:00Wed 28-Jul@11:00Wed 28-Jul@04:00Wed 28-Jul@07:00Wed 28-Jul@21:00Wed 28-Jul@23:00
The HERD Bull Run (1.9-2.2 wkg) Sand And SequoiasRide Wed 28-Jul@17:00Wed 28-Jul@17:00Wed 28-Jul@10:00Wed 28-Jul@13:00Thu 29-Jul@03:00Thu 29-Jul@05:00
Bullseye Points Race by Herd Racing League The Fan FlatsRace Wed 28-Jul@18:00Wed 28-Jul@18:00Wed 28-Jul@11:00Wed 28-Jul@14:00Thu 29-Jul@04:00Thu 29-Jul@06:00
Bullseye Points Race by Herd Racing League The Fan FlatsRace Wed 28-Jul@21:50Wed 28-Jul@21:50Wed 28-Jul@14:50Wed 28-Jul@17:50Thu 29-Jul@07:50Thu 29-Jul@09:50
The HERD Wacky Wednesday (1.3-1.5 wkg)Tempus FugitRide Wed 28-Jul@22:15Wed 28-Jul@22:15Wed 28-Jul@15:15Wed 28-Jul@18:15Thu 29-Jul@08:15Thu 29-Jul@10:15
Bullseye Points Race by Herd Racing League The Fan FlatsRace Thu 29-Jul@00:00Thu 29-Jul@00:00Wed 28-Jul@17:00Wed 28-Jul@20:00Thu 29-Jul@10:00Thu 29-Jul@12:00
The Alpine Wednesday meetup (Steve Ciccarelli) TBDMeetup Thu 29-Jul@00:15Thu 29-Jul@00:15Wed 28-Jul@17:15Wed 28-Jul@20:15Thu 29-Jul@10:15Thu 29-Jul@12:15
Regular Irregular’s meetup - Thursday (Ricardo Morales) TBDMeetup Thu 29-Jul@11:00Thu 29-Jul@11:00Thu 29-Jul@04:00Thu 29-Jul@07:00Thu 29-Jul@21:00Thu 29-Jul@23:00
The HERD Thursday Social (1.1-1.3 wkg)Libby Hill After PartyRide Thu 29-Jul@17:20Thu 29-Jul@17:20Thu 29-Jul@10:20Thu 29-Jul@13:20Fri 30-Jul@03:20Fri 30-Jul@05:20
Thursday meetup - 0.75 to 1.0wkg (Brad Atchison) TBDMeetup Thu 29-Jul@22:30Thu 29-Jul@22:30Thu 29-Jul@15:30Thu 29-Jul@18:30Fri 30-Jul@08:30Fri 30-Jul@10:30
The HERD Thirsty Thursday (1.5-2.0 wkg)2019 UCI Worlds Harrogate CircuitRide Thu 29-Jul@23:15Thu 29-Jul@23:15Thu 29-Jul@16:15Thu 29-Jul@19:15Fri 30-Jul@09:15Fri 30-Jul@11:15
The HERD Kibbitz and Chinwag (0.9-1.1 wkg)Greater London FlatRide Fri 30-Jul@11:00Fri 30-Jul@11:00Fri 30-Jul@04:00Fri 30-Jul@07:00Fri 30-Jul@21:00Fri 30-Jul@23:00
The HERD Friday Social Ride on RGT (pace up to 2wkg)TBDGroupRide Fri 30-Jul@17:00Fri 30-Jul@17:00Fri 30-Jul@10:00Fri 30-Jul@13:00Sat 31-Jul@03:00Sat 31-Jul@05:00
Herd Summer Racing League Downtown DolphinRace Fri 30-Jul@18:00Fri 30-Jul@18:00Fri 30-Jul@11:00Fri 30-Jul@14:00Sat 31-Jul@04:00Sat 31-Jul@06:00
Herd Summer Racing League Downtown DolphinRace Fri 30-Jul@21:50Fri 30-Jul@21:50Fri 30-Jul@14:50Fri 30-Jul@17:50Sat 31-Jul@07:50Sat 31-Jul@09:50
The HERD FriYay Social (1.4-1.6 wkg)Watopia's WaistbandRide Fri 30-Jul@23:40Fri 30-Jul@23:40Fri 30-Jul@16:40Fri 30-Jul@19:40Sat 31-Jul@09:40Sat 31-Jul@11:40
Regular Irregular’s meetup - Saturday (Tracey Foley) TBDMeetup Sat 31-Jul@11:00Sat 31-Jul@11:00Sat 31-Jul@04:00Sat 31-Jul@07:00Sat 31-Jul@21:00Sat 31-Jul@23:00
CHIMO (HERD) POLAR EXPRESS - 1.5-2.0wkg (Isy Att) Triple LoopsMeetup Sat 31-Jul@12:30Sat 31-Jul@12:30Sat 31-Jul@05:30Sat 31-Jul@08:30Sat 31-Jul@22:30Sun 01-Aug@00:30
Dave T's Meet Up/Anti-social Social Ride (Dave Turner) Triple LoopsMeetup Sat 31-Jul@12:30Sat 31-Jul@12:30Sat 31-Jul@05:30Sat 31-Jul@08:30Sat 31-Jul@22:30Sun 01-Aug@00:30